sensor_id;sensor_type;location;lat;lon;timestamp;pressure;altitude;pressure_sealevel;temperature;humidity
21300;BME280;10809;49.476;11.016;2023-03-14T00:01:23;96519.53;;;9.43;67.39
21300;BME280;10809;49.476;11.016;2023-03-14T00:03:53;96532.72;;;9.43;67.31
21300;BME280;10809;49.476;11.016;2023-03-14T00:06:25;96537.31;;;9.41;67.21
21300;BME280;10809;49.476;11.016;2023-03-14T00:08:58;96528.66;;;9.39;67.40
21300;BME280;10809;49.476;11.016;2023-03-14T00:11:29;96530.47;;;9.38;67.60
21300;BME280;10809;49.476;11.016;2023-03-14T00:14:00;96537.56;;;9.38;67.65
21300;BME280;10809;49.476;11.016;2023-03-14T00:16:33;96540.19;;;9.38;67.49
21300;BME280;10809;49.476;11.016;2023-03-14T00:19:04;96533.22;;;9.37;67.66
21300;BME280;10809;49.476;11.016;2023-03-14T00:21:34;96541.13;;;9.37;67.72
21300;BME280;10809;49.476;11.016;2023-03-14T00:24:06;96544.75;;;9.36;67.48
21300;BME280;10809;49.476;11.016;2023-03-14T00:26:39;96548.38;;;9.35;67.73
21300;BME280;10809;49.476;11.016;2023-03-14T00:29:10;96557.00;;;9.37;67.63
21300;BME280;10809;49.476;11.016;2023-03-14T00:31:47;96553.66;;;9.35;67.33
21300;BME280;10809;49.476;11.016;2023-03-14T00:34:29;96574.03;;;9.33;67.17
21300;BME280;10809;49.476;11.016;2023-03-14T00:37:03;96574.03;;;9.33;67.39
21300;BME280;10809;49.476;11.016;2023-03-14T00:39:39;96588.09;;;9.33;67.33
21300;BME280;10809;49.476;11.016;2023-03-14T00:42:11;96589.88;;;9.33;67.39
21300;BME280;10809;49.476;11.016;2023-03-14T00:44:44;96596.97;;;9.32;67.51
21300;BME280;10809;49.476;11.016;2023-03-14T00:47:15;96606.69;;;9.32;67.75
21300;BME280;10809;49.476;11.016;2023-03-14T00:49:46;96612.06;;;9.30;67.42
21300;BME280;10809;49.476;11.016;2023-03-14T00:52:18;96603.34;;;9.30;67.21
21300;BME280;10809;49.476;11.016;2023-03-14T00:54:49;96599.97;;;9.28;67.85
21300;BME280;10809;49.476;11.016;2023-03-14T00:57:22;96593.00;;;9.27;67.33
21300;BME280;10809;49.476;11.016;2023-03-14T00:59:52;96596.59;;;9.26;67.48
21300;BME280;10809;49.476;11.016;2023-03-14T01:02:26;96591.53;;;9.23;67.43
21300;BME280;10809;49.476;11.016;2023-03-14T01:04:57;96579.31;;;9.22;67.41
21300;BME280;10809;49.476;11.016;2023-03-14T01:07:27;96574.88;;;9.22;67.56
21300;BME280;10809;49.476;11.016;2023-03-14T01:09:58;96556.66;;;9.19;67.57
21300;BME280;10809;49.476;11.016;2023-03-14T01:12:32;96548.72;;;9.19;67.22
21300;BME280;10809;49.476;11.016;2023-03-14T01:15:04;96540.81;;;9.19;67.42
21300;BME280;10809;49.476;11.016;2023-03-14T01:17:40;96554.00;;;9.19;67.25
21300;BME280;10809;49.476;11.016;2023-03-14T01:20:12;96559.28;;;9.19;67.27
21300;BME280;10809;49.476;11.016;2023-03-14T01:22:46;96550.63;;;9.17;67.51
21300;BME280;10809;49.476;11.016;2023-03-14T01:25:20;96562.03;;;9.18;67.58
21300;BME280;10809;49.476;11.016;2023-03-14T01:30:56;96516.19;;;9.19;67.33
21300;BME280;10809;49.476;11.016;2023-03-14T01:33:32;96515.22;;;9.20;67.38
21300;BME280;10809;49.476;11.016;2023-03-14T01:36:03;96518.72;;;9.20;67.71
21300;BME280;10809;49.476;11.016;2023-03-14T01:38:35;96519.56;;;9.21;67.73
21300;BME280;10809;49.476;11.016;2023-03-14T01:41:08;96517.63;;;9.23;67.75
21300;BME280;10809;49.476;11.016;2023-03-14T01:43:48;96511.41;;;9.24;67.58
21300;BME280;10809;49.476;11.016;2023-03-14T01:46:25;96526.25;;;9.25;67.59
21300;BME280;10809;49.476;11.016;2023-03-14T01:49:07;96523.63;;;9.25;67.56
21300;BME280;10809;49.476;11.016;2023-03-14T01:51:44;96524.59;;;9.24;67.52
21300;BME280;10809;49.476;11.016;2023-03-14T01:54:41;96542.97;;;9.25;67.43
21300;BME280;10809;49.476;11.016;2023-03-14T01:57:17;96548.13;;;9.27;67.30
21300;BME280;10809;49.476;11.016;2023-03-14T02:00:00;96548.25;;;9.25;67.13
21300;BME280;10809;49.476;11.016;2023-03-14T02:02:46;96567.53;;;9.26;67.63
21300;BME280;10809;49.476;11.016;2023-03-14T02:05:24;96564.09;;;9.25;67.39
21300;BME280;10809;49.476;11.016;2023-03-14T02:08:07;96553.53;;;9.25;67.40
21300;BME280;10809;49.476;11.016;2023-03-14T02:10:47;96557.94;;;9.25;67.45
21300;BME280;10809;49.476;11.016;2023-03-14T02:13:20;96557.94;;;9.25;67.50
21300;BME280;10809;49.476;11.016;2023-03-14T02:16:30;96543.78;;;9.26;67.61
21300;BME280;10809;49.476;11.016;2023-03-14T02:22:48;96530.44;;;9.27;67.43
21300;BME280;10809;49.476;11.016;2023-03-14T02:25:31;96520.00;;;9.26;67.71
21300;BME280;10809;49.476;11.016;2023-03-14T02:28:09;96508.75;;;9.24;67.68
21300;BME280;10809;49.476;11.016;2023-03-14T02:30:50;96508.63;;;9.25;67.41
21300;BME280;10809;49.476;11.016;2023-03-14T02:33:22;96508.75;;;9.24;67.77
21300;BME280;10809;49.476;11.016;2023-03-14T02:35:56;96514.16;;;9.22;67.58
21300;BME280;10809;49.476;11.016;2023-03-14T02:41:23;96499.97;;;9.23;67.71
21300;BME280;10809;49.476;11.016;2023-03-14T02:44:03;96491.22;;;9.23;67.88
21300;BME280;10809;49.476;11.016;2023-03-14T02:46:34;96486.06;;;9.21;67.55
21300;BME280;10809;49.476;11.016;2023-03-14T02:49:12;96491.34;;;9.21;67.59
21300;BME280;10809;49.476;11.016;2023-03-14T02:51:44;96477.31;;;9.21;67.80
21300;BME280;10809;49.476;11.016;2023-03-14T02:54:17;96478.97;;;9.22;68.11
21300;BME280;10809;49.476;11.016;2023-03-14T02:56:50;96470.22;;;9.21;67.87
21300;BME280;10809;49.476;11.016;2023-03-14T02:59:20;96456.19;;;9.21;67.54
21300;BME280;10809;49.476;11.016;2023-03-14T03:01:59;96465.91;;;9.20;67.84
21300;BME280;10809;49.476;11.016;2023-03-14T03:04:30;96468.66;;;9.19;67.71
21300;BME280;10809;49.476;11.016;2023-03-14T03:07:00;96455.59;;;9.17;67.99
21300;BME280;10809;49.476;11.016;2023-03-14T03:09:34;96461.84;;;9.16;67.98
21300;BME280;10809;49.476;11.016;2023-03-14T03:12:04;96476.81;;;9.16;67.86
21300;BME280;10809;49.476;11.016;2023-03-14T03:14:35;96484.88;;;9.14;67.48
21300;BME280;10809;49.476;11.016;2023-03-14T03:17:08;96478.75;;;9.14;67.83
21300;BME280;10809;49.476;11.016;2023-03-14T03:19:51;96464.84;;;9.12;67.39
21300;BME280;10809;49.476;11.016;2023-03-14T03:22:21;96468.41;;;9.11;67.61
21300;BME280;10809;49.476;11.016;2023-03-14T03:24:55;96459.81;;;9.09;67.85
21300;BME280;10809;49.476;11.016;2023-03-14T03:27:26;96454.66;;;9.07;67.68
21300;BME280;10809;49.476;11.016;2023-03-14T03:29:57;96453.78;;;9.07;67.75
21300;BME280;10809;49.476;11.016;2023-03-14T03:32:28;96448.75;;;9.04;67.79
21300;BME280;10809;49.476;11.016;2023-03-14T03:34:58;96441.81;;;9.03;67.97
21300;BME280;10809;49.476;11.016;2023-03-14T03:37:33;96440.22;;;9.00;68.07
21300;BME280;10809;49.476;11.016;2023-03-14T03:40:08;96451.88;;;8.98;67.81
21300;BME280;10809;49.476;11.016;2023-03-14T03:42:43;96459.06;;;8.96;67.86
21300;BME280;10809;49.476;11.016;2023-03-14T03:45:15;96464.34;;;8.96;68.14
21300;BME280;10809;49.476;11.016;2023-03-14T03:47:57;96446.97;;;8.93;67.63
21300;BME280;10809;49.476;11.016;2023-03-14T03:50:30;96461.94;;;8.93;67.77
21300;BME280;10809;49.476;11.016;2023-03-14T03:53:01;96465.56;;;8.92;67.79
21300;BME280;10809;49.476;11.016;2023-03-14T03:55:32;96457.88;;;8.89;67.82
21300;BME280;10809;49.476;11.016;2023-03-14T03:58:02;96451.88;;;8.87;68.04
21300;BME280;10809;49.476;11.016;2023-03-14T04:00:33;96449.34;;;8.85;67.71
21300;BME280;10809;49.476;11.016;2023-03-14T04:03:06;96442.41;;;8.84;67.64
21300;BME280;10809;49.476;11.016;2023-03-14T04:05:37;96438.22;;;8.82;68.09
21300;BME280;10809;49.476;11.016;2023-03-14T04:08:15;96430.41;;;8.80;67.79
21300;BME280;10809;49.476;11.016;2023-03-14T04:10:59;96424.31;;;8.80;67.79
21300;BME280;10809;49.476;11.016;2023-03-14T04:13:48;96419.97;;;8.79;67.77
21300;BME280;10809;49.476;11.016;2023-03-14T04:16:21;96414.94;;;8.76;67.39
21300;BME280;10809;49.476;11.016;2023-03-14T04:18:53;96409.78;;;8.74;68.06
21300;BME280;10809;49.476;11.016;2023-03-14T04:21:26;96403.91;;;8.71;67.73
21300;BME280;10809;49.476;11.016;2023-03-14T04:24:00;96422.38;;;8.71;67.96
21300;BME280;10809;49.476;11.016;2023-03-14T04:26:41;96404.03;;;8.69;67.59
21300;BME280;10809;49.476;11.016;2023-03-14T04:29:13;96400.56;;;8.69;68.03
21300;BME280;10809;49.476;11.016;2023-03-14T04:31:46;96396.38;;;8.66;67.74
21300;BME280;10809;49.476;11.016;2023-03-14T04:34:17;96398.16;;;8.66;67.60
21300;BME280;10809;49.476;11.016;2023-03-14T04:36:54;96403.56;;;8.64;67.84
21300;BME280;10809;49.476;11.016;2023-03-14T04:39:40;96401.88;;;8.63;67.55
21300;BME280;10809;49.476;11.016;2023-03-14T04:42:18;96401.97;;;8.62;67.72
21300;BME280;10809;49.476;11.016;2023-03-14T04:44:50;96409.16;;;8.60;67.96
21300;BME280;10809;49.476;11.016;2023-03-14T04:47:28;96406.53;;;8.60;67.87
21300;BME280;10809;49.476;11.016;2023-03-14T04:49:59;96402.22;;;8.59;67.65
21300;BME280;10809;49.476;11.016;2023-03-14T04:52:33;96403.16;;;8.58;67.80
21300;BME280;10809;49.476;11.016;2023-03-14T04:55:05;96406.75;;;8.57;67.97
21300;BME280;10809;49.476;11.016;2023-03-14T04:57:39;96419.94;;;8.57;67.89
21300;BME280;10809;49.476;11.016;2023-03-14T05:00:22;96420.19;;;8.54;67.72
21300;BME280;10809;49.476;11.016;2023-03-14T05:03:02;96420.19;;;8.54;67.80
21300;BME280;10809;49.476;11.016;2023-03-14T05:05:56;96414.19;;;8.52;67.64
21300;BME280;10809;49.476;11.016;2023-03-14T05:08:55;96418.75;;;8.50;67.95
21300;BME280;10809;49.476;11.016;2023-03-14T05:11:56;96424.03;;;8.50;67.65
21300;BME280;10809;49.476;11.016;2023-03-14T05:15:05;96415.38;;;8.48;67.68
21300;BME280;10809;49.476;11.016;2023-03-14T05:17:58;96409.50;;;8.44;67.90
21300;BME280;10809;49.476;11.016;2023-03-14T05:20:50;96407.81;;;8.43;67.73
21300;BME280;10809;49.476;11.016;2023-03-14T05:23:30;96401.81;;;8.41;68.08
21300;BME280;10809;49.476;11.016;2023-03-14T05:26:12;96394.88;;;8.40;67.88
21300;BME280;10809;49.476;11.016;2023-03-14T05:28:58;96395.84;;;8.39;67.72
21300;BME280;10809;49.476;11.016;2023-03-14T05:31:47;96391.63;;;8.37;67.83
21300;BME280;10809;49.476;11.016;2023-03-14T05:34:40;96382.06;;;8.36;68.22
21300;BME280;10809;49.476;11.016;2023-03-14T05:37:28;96375.22;;;8.33;67.94
21300;BME280;10809;49.476;11.016;2023-03-14T05:40:17;96376.16;;;8.32;68.16
21300;BME280;10809;49.476;11.016;2023-03-14T05:43:11;96364.81;;;8.32;68.05
21300;BME280;10809;49.476;11.016;2023-03-14T05:45:53;96363.97;;;8.31;68.27
21300;BME280;10809;49.476;11.016;2023-03-14T05:48:32;96357.00;;;8.30;67.88
21300;BME280;10809;49.476;11.016;2023-03-14T05:51:19;96352.78;;;8.28;67.92
21300;BME280;10809;49.476;11.016;2023-03-14T05:53:58;96350.28;;;8.26;68.24
21300;BME280;10809;49.476;11.016;2023-03-14T05:56:48;96353.88;;;8.25;68.29
21300;BME280;10809;49.476;11.016;2023-03-14T05:59:36;96355.66;;;8.25;68.41
21300;BME280;10809;49.476;11.016;2023-03-14T06:02:33;96354.81;;;8.24;68.29
21300;BME280;10809;49.476;11.016;2023-03-14T06:05:17;96360.22;;;8.23;68.43
21300;BME280;10809;49.476;11.016;2023-03-14T06:07:53;96359.28;;;8.24;68.48
21300;BME280;10809;49.476;11.016;2023-03-14T06:10:24;96359.28;;;8.24;68.17
21300;BME280;10809;49.476;11.016;2023-03-14T06:12:55;96365.38;;;8.24;68.45
21300;BME280;10809;49.476;11.016;2023-03-14T06:15:35;96366.34;;;8.23;68.23
21300;BME280;10809;49.476;11.016;2023-03-14T06:18:10;96364.56;;;8.24;68.15
21300;BME280;10809;49.476;11.016;2023-03-14T06:20:41;96367.19;;;8.24;68.57
21300;BME280;10809;49.476;11.016;2023-03-14T06:23:17;96364.56;;;8.24;68.27
21300;BME280;10809;49.476;11.016;2023-03-14T06:25:47;96359.16;;;8.25;68.35
21300;BME280;10809;49.476;11.016;2023-03-14T06:28:18;96356.41;;;8.27;68.62
21300;BME280;10809;49.476;11.016;2023-03-14T06:30:48;96366.84;;;8.28;68.53
21300;BME280;10809;49.476;11.016;2023-03-14T06:33:20;96361.44;;;8.30;68.88
21300;BME280;10809;49.476;11.016;2023-03-14T06:35:50;96357.84;;;8.31;68.55
21300;BME280;10809;49.476;11.016;2023-03-14T06:38:24;96356.91;;;8.32;68.63
21300;BME280;10809;49.476;11.016;2023-03-14T06:41:08;96357.47;;;8.35;68.84
21300;BME280;10809;49.476;11.016;2023-03-14T06:43:49;96358.31;;;8.36;68.65
21300;BME280;10809;49.476;11.016;2023-03-14T06:46:21;96355.56;;;8.37;68.95
21300;BME280;10809;49.476;11.016;2023-03-14T06:48:51;96356.31;;;8.39;68.88
21300;BME280;10809;49.476;11.016;2023-03-14T06:51:22;96353.53;;;8.41;68.97
21300;BME280;10809;49.476;11.016;2023-03-14T06:53:54;96357.84;;;8.42;69.04
21300;BME280;10809;49.476;11.016;2023-03-14T06:56:27;96369.13;;;8.44;68.99
21300;BME280;10809;49.476;11.016;2023-03-14T06:58:59;96382.06;;;8.47;68.93
21300;BME280;10809;49.476;11.016;2023-03-14T07:01:33;96382.78;;;8.49;69.02
21300;BME280;10809;49.476;11.016;2023-03-14T07:04:19;96384.34;;;8.51;68.85
21300;BME280;10809;49.476;11.016;2023-03-14T07:06:52;96376.19;;;8.54;69.19
21300;BME280;10809;49.476;11.016;2023-03-14T07:09:26;96378.72;;;8.56;69.11
21300;BME280;10809;49.476;11.016;2023-03-14T07:12:02;96375.84;;;8.59;68.95
21300;BME280;10809;49.476;11.016;2023-03-14T07:14:34;96382.66;;;8.61;68.80
21300;BME280;10809;49.476;11.016;2023-03-14T07:17:05;96371.06;;;8.64;68.92
21300;BME280;10809;49.476;11.016;2023-03-14T07:19:36;96373.56;;;8.65;69.35
21300;BME280;10809;49.476;11.016;2023-03-14T07:22:08;96372.50;;;8.68;69.24
21300;BME280;10809;49.476;11.016;2023-03-14T07:24:39;96372.38;;;8.69;69.11
21300;BME280;10809;49.476;11.016;2023-03-14T07:27:09;96369.50;;;8.72;69.32
21300;BME280;10809;49.476;11.016;2023-03-14T07:29:43;96363.97;;;8.75;69.13
21300;BME280;10809;49.476;11.016;2023-03-14T07:32:14;96367.31;;;8.77;69.30
21300;BME280;10809;49.476;11.016;2023-03-14T07:34:45;96368.78;;;8.81;69.13
21300;BME280;10809;49.476;11.016;2023-03-14T07:37:21;96364.09;;;8.85;69.19
21300;BME280;10809;49.476;11.016;2023-03-14T07:39:52;96363.97;;;8.86;69.26
21300;BME280;10809;49.476;11.016;2023-03-14T07:45:29;96360.00;;;8.92;69.06
21300;BME280;10809;49.476;11.016;2023-03-14T07:47:59;96369.72;;;8.91;69.16
21300;BME280;10809;49.476;11.016;2023-03-14T07:50:32;96359.88;;;8.93;69.08
21300;BME280;10809;49.476;11.016;2023-03-14T07:53:05;96364.91;;;8.96;69.00
21300;BME280;10809;49.476;11.016;2023-03-14T07:55:36;96365.50;;;9.00;69.09
21300;BME280;10809;49.476;11.016;2023-03-14T07:58:09;96353.75;;;9.04;69.41
21300;BME280;10809;49.476;11.016;2023-03-14T08:00:40;96364.66;;;9.10;69.58
21300;BME280;10809;49.476;11.016;2023-03-14T08:03:10;96370.25;;;9.17;70.32
21300;BME280;10809;49.476;11.016;2023-03-14T08:05:41;96378.88;;;9.30;70.58
21300;BME280;10809;49.476;11.016;2023-03-14T08:08:12;96375.97;;;9.44;70.22
21300;BME280;10809;49.476;11.016;2023-03-14T08:10:46;96366.19;;;9.55;69.51
21300;BME280;10809;49.476;11.016;2023-03-14T08:13:16;96366.25;;;9.65;69.63
21300;BME280;10809;49.476;11.016;2023-03-14T08:15:50;96375.81;;;9.77;69.56
21300;BME280;10809;49.476;11.016;2023-03-14T08:18:21;96366.28;;;9.86;68.89
21300;BME280;10809;49.476;11.016;2023-03-14T08:20:51;96368.13;;;9.95;68.72
21300;BME280;10809;49.476;11.016;2023-03-14T08:23:22;96357.19;;;9.99;68.41
21300;BME280;10809;49.476;11.016;2023-03-14T08:25:52;96348.91;;;10.04;68.20
21300;BME280;10809;49.476;11.016;2023-03-14T08:28:26;96350.06;;;10.11;68.18
21300;BME280;10809;49.476;11.016;2023-03-14T08:31:01;96345.22;;;10.16;68.27
21300;BME280;10809;49.476;11.016;2023-03-14T08:33:38;96349.97;;;10.22;68.04
21300;BME280;10809;49.476;11.016;2023-03-14T08:36:12;96343.06;;;10.30;68.12
21300;BME280;10809;49.476;11.016;2023-03-14T08:38:42;96339.78;;;10.38;68.08
21300;BME280;10809;49.476;11.016;2023-03-14T08:41:26;96347.91;;;10.46;68.22
21300;BME280;10809;49.476;11.016;2023-03-14T08:43:57;96351.28;;;10.57;68.32
21300;BME280;10809;49.476;11.016;2023-03-14T08:46:27;96351.06;;;10.70;68.40
21300;BME280;10809;49.476;11.016;2023-03-14T08:48:58;96350.13;;;10.80;68.04
21300;BME280;10809;49.476;11.016;2023-03-14T08:51:29;96336.78;;;10.91;67.96
21300;BME280;10809;49.476;11.016;2023-03-14T08:54:02;96341.94;;;11.02;67.30
21300;BME280;10809;49.476;11.016;2023-03-14T08:56:33;96336.81;;;11.10;66.55
21300;BME280;10809;49.476;11.016;2023-03-14T08:59:07;96331.97;;;11.15;66.17
21300;BME280;10809;49.476;11.016;2023-03-14T09:01:38;96337.94;;;11.17;65.83
21300;BME280;10809;49.476;11.016;2023-03-14T09:04:12;96333.63;;;11.16;65.16
21300;BME280;10809;49.476;11.016;2023-03-14T09:06:43;96335.41;;;11.16;64.62
21300;BME280;10809;49.476;11.016;2023-03-14T09:09:14;96336.53;;;11.13;64.90
21300;BME280;10809;49.476;11.016;2023-03-14T09:11:45;96334.88;;;11.12;65.10
21300;BME280;10809;49.476;11.016;2023-03-14T09:14:16;96326.94;;;11.12;64.80
21300;BME280;10809;49.476;11.016;2023-03-14T09:16:46;96333.03;;;11.13;64.94
21300;BME280;10809;49.476;11.016;2023-03-14T09:19:17;96325.81;;;11.15;65.05
21300;BME280;10809;49.476;11.016;2023-03-14T09:21:51;96332.50;;;11.19;65.25
21300;BME280;10809;49.476;11.016;2023-03-14T09:24:24;96331.16;;;11.24;65.21
21300;BME280;10809;49.476;11.016;2023-03-14T09:26:58;96322.81;;;11.29;65.37
21300;BME280;10809;49.476;11.016;2023-03-14T09:29:35;96326.56;;;11.36;65.12
21300;BME280;10809;49.476;11.016;2023-03-14T09:32:06;96318.78;;;11.44;64.76
21300;BME280;10809;49.476;11.016;2023-03-14T09:34:37;96319.06;;;11.51;64.87
21300;BME280;10809;49.476;11.016;2023-03-14T09:37:08;96324.75;;;11.56;64.13
21300;BME280;10809;49.476;11.016;2023-03-14T09:39:38;96326.16;;;11.60;63.73
21300;BME280;10809;49.476;11.016;2023-03-14T09:42:13;96329.50;;;11.62;63.44
21300;BME280;10809;49.476;11.016;2023-03-14T09:44:54;96337.44;;;11.62;63.11
21300;BME280;10809;49.476;11.016;2023-03-14T09:47:35;96330.63;;;11.59;62.66
21300;BME280;10809;49.476;11.016;2023-03-14T09:50:14;96330.19;;;11.54;62.17
21300;BME280;10809;49.476;11.016;2023-03-14T09:52:50;96331.47;;;11.50;62.21
21300;BME280;10809;49.476;11.016;2023-03-14T09:55:22;96338.97;;;11.45;61.92
21300;BME280;10809;49.476;11.016;2023-03-14T09:58:02;96334.09;;;11.41;62.12
21300;BME280;10809;49.476;11.016;2023-03-14T10:00:35;96329.06;;;11.38;61.82
21300;BME280;10809;49.476;11.016;2023-03-14T10:05:45;96327.41;;;11.27;61.74
21300;BME280;10809;49.476;11.016;2023-03-14T10:08:19;96319.72;;;11.24;61.61
21300;BME280;10809;49.476;11.016;2023-03-14T10:10:50;96320.81;;;11.21;61.81
21300;BME280;10809;49.476;11.016;2023-03-14T10:13:23;96316.59;;;11.19;61.62
21300;BME280;10809;49.476;11.016;2023-03-14T10:16:03;96307.13;;;11.16;61.95
21300;BME280;10809;49.476;11.016;2023-03-14T10:18:36;96315.78;;;11.18;61.86
21300;BME280;10809;49.476;11.016;2023-03-14T10:21:50;96317.72;;;11.16;62.25
21300;BME280;10809;49.476;11.016;2023-03-14T10:27:01;96316.88;;;11.16;62.24
21300;BME280;10809;49.476;11.016;2023-03-14T10:29:52;96313.56;;;11.14;62.63
21300;BME280;10809;49.476;11.016;2023-03-14T10:32:29;96304.75;;;11.13;62.26
21300;BME280;10809;49.476;11.016;2023-03-14T10:35:23;96300.31;;;11.14;62.58
21300;BME280;10809;49.476;11.016;2023-03-14T10:38:00;96308.94;;;11.16;62.09
21300;BME280;10809;49.476;11.016;2023-03-14T10:40:49;96294.88;;;11.15;62.17
21300;BME280;10809;49.476;11.016;2023-03-14T10:43:33;96306.28;;;11.16;61.67
21300;BME280;10809;49.476;11.016;2023-03-14T10:46:17;96304.63;;;11.15;61.42
21300;BME280;10809;49.476;11.016;2023-03-14T10:49:07;96304.75;;;11.13;60.89
21300;BME280;10809;49.476;11.016;2023-03-14T10:51:47;96311.03;;;11.12;61.32
21300;BME280;10809;49.476;11.016;2023-03-14T10:54:29;96314.66;;;11.11;61.39
21300;BME280;10809;49.476;11.016;2023-03-14T10:57:04;96315.78;;;11.09;60.92
21300;BME280;10809;49.476;11.016;2023-03-14T10:59:38;96319.53;;;11.06;61.30
21300;BME280;10809;49.476;11.016;2023-03-14T11:07:40;96336.09;;;10.99;61.02
21300;BME280;10809;49.476;11.016;2023-03-14T11:10:19;96337.34;;;10.95;60.90
21300;BME280;10809;49.476;11.016;2023-03-14T11:15:53;96337.06;;;10.88;62.02
21300;BME280;10809;49.476;11.016;2023-03-14T11:18:43;96334.41;;;10.88;62.40
21300;BME280;10809;49.476;11.016;2023-03-14T11:21:35;96337.75;;;10.90;62.54
21300;BME280;10809;49.476;11.016;2023-03-14T11:24:26;96337.47;;;10.93;62.51
21300;BME280;10809;49.476;11.016;2023-03-14T11:27:15;96345.28;;;10.95;63.10
21300;BME280;10809;49.476;11.016;2023-03-14T11:30:14;96344.31;;;10.96;63.04
21300;BME280;10809;49.476;11.016;2023-03-14T11:38:30;96328.75;;;11.21;64.11
21300;BME280;10809;49.476;11.016;2023-03-14T11:41:08;96321.41;;;11.35;64.20
21300;BME280;10809;49.476;11.016;2023-03-14T11:43:40;96303.44;;;11.48;63.65
21300;BME280;10809;49.476;11.016;2023-03-14T11:46:21;96300.34;;;11.62;63.49
21300;BME280;10809;49.476;11.016;2023-03-14T11:48:57;96298.25;;;11.75;63.25
21300;BME280;10809;49.476;11.016;2023-03-14T11:51:39;96300.44;;;11.89;63.21
21300;BME280;10809;49.476;11.016;2023-03-14T11:57:12;96283.66;;;12.07;61.94
21300;BME280;10809;49.476;11.016;2023-03-14T12:08:32;96266.69;;;12.46;61.89
21300;BME280;10809;49.476;11.016;2023-03-14T12:11:41;96264.66;;;12.58;61.87
21300;BME280;10809;49.476;11.016;2023-03-14T12:14:23;96266.13;;;12.70;61.38
21300;BME280;10809;49.476;11.016;2023-03-14T12:17:06;96260.47;;;12.82;61.18
21300;BME280;10809;49.476;11.016;2023-03-14T12:19:39;96278.03;;;12.93;59.97
21300;BME280;10809;49.476;11.016;2023-03-14T12:22:21;96274.63;;;13.00;59.61
21300;BME280;10809;49.476;11.016;2023-03-14T12:25:00;96274.31;;;13.03;58.70
21300;BME280;10809;49.476;11.016;2023-03-14T12:30:39;96263.16;;;13.00;58.25
21300;BME280;10809;49.476;11.016;2023-03-14T12:33:11;96256.47;;;12.96;57.61
21300;BME280;10809;49.476;11.016;2023-03-14T12:35:59;96256.22;;;12.89;58.07
21300;BME280;10809;49.476;11.016;2023-03-14T12:41:27;96252.38;;;12.84;58.43
21300;BME280;10809;49.476;11.016;2023-03-14T12:49:52;96243.69;;;12.82;57.87
21300;BME280;10809;49.476;11.016;2023-03-14T12:52:47;96245.66;;;12.80;57.13
21300;BME280;10809;49.476;11.016;2023-03-14T12:55:39;96258.56;;;12.75;57.23
21300;BME280;10809;49.476;11.016;2023-03-14T12:58:32;96254.53;;;12.71;57.71
21300;BME280;10809;49.476;11.016;2023-03-14T13:01:18;96284.63;;;12.62;57.71
21300;BME280;10809;49.476;11.016;2023-03-14T13:04:12;96307.56;;;12.53;57.84
21300;BME280;10809;49.476;11.016;2023-03-14T13:06:55;96305.94;;;12.43;58.06
21300;BME280;10809;49.476;11.016;2023-03-14T13:12:09;96317.56;;;12.23;58.27
21300;BME280;10809;49.476;11.016;2023-03-14T13:14:54;96317.03;;;12.10;57.48
21300;BME280;10809;49.476;11.016;2023-03-14T13:17:31;96327.81;;;11.99;57.58
21300;BME280;10809;49.476;11.016;2023-03-14T13:20:11;96316.63;;;11.86;57.74
21300;BME280;10809;49.476;11.016;2023-03-14T13:22:49;96317.78;;;11.74;58.21
21300;BME280;10809;49.476;11.016;2023-03-14T13:25:20;96314.31;;;11.64;58.35
21300;BME280;10809;49.476;11.016;2023-03-14T13:27:55;96344.28;;;11.55;58.83
21300;BME280;10809;49.476;11.016;2023-03-14T13:30:40;96347.06;;;11.44;59.25
21300;BME280;10809;49.476;11.016;2023-03-14T13:33:14;96334.66;;;11.35;59.36
21300;BME280;10809;49.476;11.016;2023-03-14T13:35:47;96347.88;;;11.25;60.02
21300;BME280;10809;49.476;11.016;2023-03-14T13:38:27;96335.69;;;11.13;60.24
21300;BME280;10809;49.476;11.016;2023-03-14T13:40:59;96357.84;;;11.02;60.41
21300;BME280;10809;49.476;11.016;2023-03-14T13:43:32;96363.94;;;10.93;60.79
21300;BME280;10809;49.476;11.016;2023-03-14T13:46:20;96352.75;;;10.80;61.00
21300;BME280;10809;49.476;11.016;2023-03-14T13:48:57;96360.53;;;10.72;60.79
21300;BME280;10809;49.476;11.016;2023-03-14T13:51:29;96361.34;;;10.63;61.41
21300;BME280;10809;49.476;11.016;2023-03-14T13:54:20;96363.25;;;10.52;61.53
21300;BME280;10809;49.476;11.016;2023-03-14T13:57:01;96364.03;;;10.43;61.85
21300;BME280;10809;49.476;11.016;2023-03-14T13:59:34;96369.84;;;10.37;61.96
21300;BME280;10809;49.476;11.016;2023-03-14T14:02:12;96368.69;;;10.30;62.34
21300;BME280;10809;49.476;11.016;2023-03-14T14:04:53;96376.41;;;10.22;62.35
21300;BME280;10809;49.476;11.016;2023-03-14T14:07:24;96385.72;;;10.16;63.11
21300;BME280;10809;49.476;11.016;2023-03-14T14:09:55;96395.03;;;10.11;63.05
21300;BME280;10809;49.476;11.016;2023-03-14T14:12:36;96399.13;;;10.04;63.14
21300;BME280;10809;49.476;11.016;2023-03-14T14:15:16;96415.47;;;9.98;63.51
21300;BME280;10809;49.476;11.016;2023-03-14T14:20:27;96430.44;;;9.88;64.04
21300;BME280;10809;49.476;11.016;2023-03-14T14:23:07;96457.25;;;9.83;64.11
21300;BME280;10809;49.476;11.016;2023-03-14T14:25:43;96469.13;;;9.78;64.46
21300;BME280;10809;49.476;11.016;2023-03-14T14:28:34;96490.06;;;9.70;63.78
21300;BME280;10809;49.476;11.016;2023-03-14T14:31:25;96502.06;;;9.63;63.92
21300;BME280;10809;49.476;11.016;2023-03-14T14:33:57;96504.41;;;9.56;63.97
21300;BME280;10809;49.476;11.016;2023-03-14T14:36:44;96515.56;;;9.48;63.96
21300;BME280;10809;49.476;11.016;2023-03-14T14:39:21;96539.72;;;9.44;64.32
21300;BME280;10809;49.476;11.016;2023-03-14T14:41:53;96570.91;;;9.39;64.57
21300;BME280;10809;49.476;11.016;2023-03-14T14:44:32;96573.94;;;9.34;64.25
21300;BME280;10809;49.476;11.016;2023-03-14T14:47:04;96604.28;;;9.29;64.30
21300;BME280;10809;49.476;11.016;2023-03-14T14:49:41;96612.66;;;9.23;64.11